sensor_id;sensor_type;location;lat;lon;timestamp;noise_LAeq;noise_LA_min;noise_LA_max;noise_LA01;noise_LA95
69668;Laerm;66534;52.370;4.832;2023-02-01T00:00:29;47.01;41.01;58.63;;
69668;Laerm;66534;52.370;4.832;2023-02-01T00:01:05;44.15;40.74;48.85;;
69668;Laerm;66534;52.370;4.832;2023-02-01T00:01:36;45.63;41.93;53.51;;
69668;Laerm;66534;52.370;4.832;2023-02-01T00:02:06;44.74;41.12;57.24;;
69668;Laerm;66534;52.370;4.832;2023-02-01T00:02:37;42.71;39.34;46.79;;
69668;Laerm;66534;52.370;4.832;2023-02-01T00:03:09;46.78;38.81;55.52;;
69668;Laerm;66534;52.370;4.832;2023-02-01T00:03:41;45.46;41.32;54.42;;
69668;Laerm;66534;52.370;4.832;2023-02-01T00:04:11;46.19;41.56;54.26;;
69668;Laerm;66534;52.370;4.832;2023-02-01T00:04:42;47.48;43.84;55.53;;
69668;Laerm;66534;52.370;4.832;2023-02-01T00:05:12;51.62;43.65;64.42;;
69668;Laerm;66534;52.370;4.832;2023-02-01T00:05:43;45.89;40.95;55.20;;
69668;Laerm;66534;52.370;4.832;2023-02-01T00:06:13;43.37;39.57;48.88;;
69668;Laerm;66534;52.370;4.832;2023-02-01T00:06:43;44.76;41.49;54.53;;
69668;Laerm;66534;52.370;4.832;2023-02-01T00:07:14;44.74;41.89;50.23;;
69668;Laerm;66534;52.370;4.832;2023-02-01T00:07:47;43.24;40.46;47.39;;
69668;Laerm;66534;52.370;4.832;2023-02-01T00:08:18;43.74;40.66;47.65;;
69668;Laerm;66534;52.370;4.832;2023-02-01T00:08:51;46.05;41.20;53.20;;
69668;Laerm;66534;52.370;4.832;2023-02-01T00:09:22;45.24;40.75;51.29;;
69668;Laerm;66534;52.370;4.832;2023-02-01T00:09:52;48.62;41.66;67.85;;
69668;Laerm;66534;52.370;4.832;2023-02-01T00:10:23;48.87;43.03;64.11;;
69668;Laerm;66534;52.370;4.832;2023-02-01T00:11:08;47.31;42.47;53.15;;
69668;Laerm;66534;52.370;4.832;2023-02-01T00:11:39;46.49;42.07;55.27;;
69668;Laerm;66534;52.370;4.832;2023-02-01T00:12:10;44.63;41.84;49.24;;
69668;Laerm;66534;52.370;4.832;2023-02-01T00:12:40;45.30;41.14;49.81;;
69668;Laerm;66534;52.370;4.832;2023-02-01T00:13:11;46.13;41.96;54.43;;
69668;Laerm;66534;52.370;4.832;2023-02-01T00:13:42;46.54;43.66;52.50;;
69668;Laerm;66534;52.370;4.832;2023-02-01T00:14:12;48.36;44.42;54.62;;
69668;Laerm;66534;52.370;4.832;2023-02-01T00:14:43;49.14;44.63;56.15;;
69668;Laerm;66534;52.370;4.832;2023-02-01T00:15:13;46.80;43.42;55.74;;
69668;Laerm;66534;52.370;4.832;2023-02-01T00:15:44;46.85;42.08;56.04;;
69668;Laerm;66534;52.370;4.832;2023-02-01T00:16:20;44.79;42.08;50.62;;
69668;Laerm;66534;52.370;4.832;2023-02-01T00:16:50;43.96;41.55;49.23;;
69668;Laerm;66534;52.370;4.832;2023-02-01T00:17:21;44.84;41.63;52.51;;
69668;Laerm;66534;52.370;4.832;2023-02-01T00:17:54;49.54;43.11;61.93;;
69668;Laerm;66534;52.370;4.832;2023-02-01T00:18:25;47.96;42.92;54.38;;
69668;Laerm;66534;52.370;4.832;2023-02-01T00:18:59;44.85;42.53;51.40;;
69668;Laerm;66534;52.370;4.832;2023-02-01T00:19:29;46.87;42.83;56.99;;
69668;Laerm;66534;52.370;4.832;2023-02-01T00:20:00;54.54;42.42;76.79;;
69668;Laerm;66534;52.370;4.832;2023-02-01T00:20:30;49.79;44.81;67.62;;
69668;Laerm;66534;52.370;4.832;2023-02-01T00:21:01;46.20;42.92;52.45;;
69668;Laerm;66534;52.370;4.832;2023-02-01T00:21:31;46.57;43.33;55.71;;
69668;Laerm;66534;52.370;4.832;2023-02-01T00:22:02;48.29;42.62;57.59;;
69668;Laerm;66534;52.370;4.832;2023-02-01T00:22:33;51.25;43.03;67.96;;
69668;Laerm;66534;52.370;4.832;2023-02-01T00:23:03;45.71;42.42;52.94;;
69668;Laerm;66534;52.370;4.832;2023-02-01T00:23:35;46.46;42.70;51.21;;
69668;Laerm;66534;52.370;4.832;2023-02-01T00:24:07;47.48;43.39;61.26;;
69668;Laerm;66534;52.370;4.832;2023-02-01T00:24:37;48.85;45.05;58.12;;
69668;Laerm;66534;52.370;4.832;2023-02-01T00:25:08;49.24;45.14;63.83;;
69668;Laerm;66534;52.370;4.832;2023-02-01T00:25:38;48.03;45.32;52.05;;
69668;Laerm;66534;52.370;4.832;2023-02-01T00:26:35;47.70;41.27;57.53;;
69668;Laerm;66534;52.370;4.832;2023-02-01T00:27:06;43.86;40.55;53.65;;
69668;Laerm;66534;52.370;4.832;2023-02-01T00:27:36;42.93;40.42;48.85;;
69668;Laerm;66534;52.370;4.832;2023-02-01T00:28:07;47.40;43.34;55.03;;
69668;Laerm;66534;52.370;4.832;2023-02-01T00:28:37;43.92;40.76;49.84;;
69668;Laerm;66534;52.370;4.832;2023-02-01T00:29:13;47.83;41.64;59.48;;
69668;Laerm;66534;52.370;4.832;2023-02-01T00:29:44;47.13;43.46;54.62;;
69668;Laerm;66534;52.370;4.832;2023-02-01T00:30:15;47.52;43.57;51.56;;
69668;Laerm;66534;52.370;4.832;2023-02-01T00:30:46;46.22;42.36;54.55;;
69668;Laerm;66534;52.370;4.832;2023-02-01T00:31:16;46.03;41.89;60.40;;
69668;Laerm;66534;52.370;4.832;2023-02-01T00:31:50;44.62;41.80;55.96;;
69668;Laerm;66534;52.370;4.832;2023-02-01T00:32:20;46.81;42.22;54.54;;
69668;Laerm;66534;52.370;4.832;2023-02-01T00:32:51;46.28;43.77;53.76;;
69668;Laerm;66534;52.370;4.832;2023-02-01T00:33:21;48.72;43.62;65.16;;
69668;Laerm;66534;52.370;4.832;2023-02-01T00:33:51;46.38;43.25;51.13;;
69668;Laerm;66534;52.370;4.832;2023-02-01T00:34:22;50.15;42.78;67.73;;
69668;Laerm;66534;52.370;4.832;2023-02-01T00:34:52;44.75;40.92;54.41;;
69668;Laerm;66534;52.370;4.832;2023-02-01T00:35:23;42.82;39.36;52.45;;
69668;Laerm;66534;52.370;4.832;2023-02-01T00:35:57;42.95;40.33;52.39;;
69668;Laerm;66534;52.370;4.832;2023-02-01T00:36:28;47.60;42.19;56.47;;
69668;Laerm;66534;52.370;4.832;2023-02-01T00:37:00;45.20;41.60;50.56;;
69668;Laerm;66534;52.370;4.832;2023-02-01T00:37:30;45.30;42.17;52.96;;
69668;Laerm;66534;52.370;4.832;2023-02-01T00:38:01;44.69;41.17;52.89;;
69668;Laerm;66534;52.370;4.832;2023-02-01T00:38:33;44.44;41.05;53.86;;
69668;Laerm;66534;52.370;4.832;2023-02-01T00:39:04;47.66;43.34;55.84;;
69668;Laerm;66534;52.370;4.832;2023-02-01T00:39:34;45.54;42.70;51.65;;
69668;Laerm;66534;52.370;4.832;2023-02-01T00:40:05;45.51;41.82;56.57;;
69668;Laerm;66534;52.370;4.832;2023-02-01T00:40:36;45.06;41.89;51.62;;
69668;Laerm;66534;52.370;4.832;2023-02-01T00:41:07;49.48;43.14;56.57;;
69668;Laerm;66534;52.370;4.832;2023-02-01T00:41:39;51.94;47.92;56.82;;
69668;Laerm;66534;52.370;4.832;2023-02-01T00:42:10;51.46;48.00;56.87;;
69668;Laerm;66534;52.370;4.832;2023-02-01T00:42:41;47.29;40.40;54.22;;
69668;Laerm;66534;52.370;4.832;2023-02-01T00:43:11;41.93;39.41;46.97;;
69668;Laerm;66534;52.370;4.832;2023-02-01T00:43:43;41.64;39.27;48.68;;
69668;Laerm;66534;52.370;4.832;2023-02-01T00:44:13;41.35;39.39;47.22;;
69668;Laerm;66534;52.370;4.832;2023-02-01T00:44:44;42.62;39.55;52.15;;
69668;Laerm;66534;52.370;4.832;2023-02-01T00:45:14;43.41;39.93;57.44;;
69668;Laerm;66534;52.370;4.832;2023-02-01T00:45:45;44.26;40.65;48.99;;
69668;Laerm;66534;52.370;4.832;2023-02-01T00:46:18;44.82;42.30;50.00;;
69668;Laerm;66534;52.370;4.832;2023-02-01T00:46:48;46.21;41.24;57.22;;
69668;Laerm;66534;52.370;4.832;2023-02-01T00:47:19;53.97;44.09;71.87;;
69668;Laerm;66534;52.370;4.832;2023-02-01T00:47:50;49.64;45.93;58.54;;
69668;Laerm;66534;52.370;4.832;2023-02-01T00:48:20;48.31;45.81;56.14;;
69668;Laerm;66534;52.370;4.832;2023-02-01T00:48:50;46.46;42.75;55.69;;
69668;Laerm;66534;52.370;4.832;2023-02-01T00:49:21;48.90;45.17;54.66;;
69668;Laerm;66534;52.370;4.832;2023-02-01T00:49:52;49.99;45.17;56.46;;
69668;Laerm;66534;52.370;4.832;2023-02-01T00:50:22;49.67;45.68;59.51;;
69668;Laerm;66534;52.370;4.832;2023-02-01T00:50:52;45.62;42.36;53.59;;
69668;Laerm;66534;52.370;4.832;2023-02-01T00:51:26;46.49;43.28;52.33;;
69668;Laerm;66534;52.370;4.832;2023-02-01T00:51:57;46.63;44.46;50.83;;
69668;Laerm;66534;52.370;4.832;2023-02-01T00:52:27;46.86;43.51;52.65;;
69668;Laerm;66534;52.370;4.832;2023-02-01T00:52:57;45.45;42.69;51.61;;
69668;Laerm;66534;52.370;4.832;2023-02-01T00:53:28;48.59;43.67;60.62;;
69668;Laerm;66534;52.370;4.832;2023-02-01T00:53:58;46.03;42.51;56.54;;
69668;Laerm;66534;52.370;4.832;2023-02-01T00:54:29;43.66;41.31;50.36;;
69668;Laerm;66534;52.370;4.832;2023-02-01T00:54:59;43.83;41.11;48.43;;
69668;Laerm;66534;52.370;4.832;2023-02-01T00:55:30;48.44;44.09;57.19;;
69668;Laerm;66534;52.370;4.832;2023-02-01T00:56:00;47.84;45.10;53.77;;
69668;Laerm;66534;52.370;4.832;2023-02-01T00:56:30;47.93;45.14;53.69;;
69668;Laerm;66534;52.370;4.832;2023-02-01T00:57:01;50.06;45.90;58.12;;
69668;Laerm;66534;52.370;4.832;2023-02-01T00:57:31;47.99;44.11;53.58;;
69668;Laerm;66534;52.370;4.832;2023-02-01T00:58:02;45.69;40.90;62.24;;
69668;Laerm;66534;52.370;4.832;2023-02-01T00:58:35;50.14;44.20;60.80;;
69668;Laerm;66534;52.370;4.832;2023-02-01T00:59:10;52.14;49.62;59.76;;
69668;Laerm;66534;52.370;4.832;2023-02-01T00:59:40;50.64;46.78;56.98;;
69668;Laerm;66534;52.370;4.832;2023-02-01T01:00:11;48.75;41.85;57.20;;
69668;Laerm;66534;52.370;4.832;2023-02-01T01:00:41;47.24;41.01;62.33;;
69668;Laerm;66534;52.370;4.832;2023-02-01T01:01:16;49.70;43.01;54.26;;
69668;Laerm;66534;52.370;4.832;2023-02-01T01:01:47;48.42;41.70;56.53;;
69668;Laerm;66534;52.370;4.832;2023-02-01T01:02:17;50.09;41.45;56.48;;
69668;Laerm;66534;52.370;4.832;2023-02-01T01:02:48;48.50;42.07;55.15;;
69668;Laerm;66534;52.370;4.832;2023-02-01T01:03:18;46.90;42.40;51.71;;
69668;Laerm;66534;52.370;4.832;2023-02-01T01:03:54;47.09;41.42;60.12;;
69668;Laerm;66534;52.370;4.832;2023-02-01T01:04:25;46.27;41.14;58.58;;
69668;Laerm;66534;52.370;4.832;2023-02-01T01:04:56;43.73;40.96;49.67;;
69668;Laerm;66534;52.370;4.832;2023-02-01T01:05:26;43.41;40.21;48.96;;
69668;Laerm;66534;52.370;4.832;2023-02-01T01:05:57;47.23;44.38;50.11;;
69668;Laerm;66534;52.370;4.832;2023-02-01T01:06:30;46.70;44.19;50.50;;
69668;Laerm;66534;52.370;4.832;2023-02-01T01:07:01;46.46;40.86;54.69;;
69668;Laerm;66534;52.370;4.832;2023-02-01T01:07:31;43.91;40.66;52.13;;
69668;Laerm;66534;52.370;4.832;2023-02-01T01:08:02;43.85;40.74;49.01;;
69668;Laerm;66534;52.370;4.832;2023-02-01T01:08:33;44.63;40.83;57.11;;
69668;Laerm;66534;52.370;4.832;2023-02-01T01:09:05;46.03;41.40;58.20;;
69668;Laerm;66534;52.370;4.832;2023-02-01T01:09:36;46.89;43.11;52.63;;
69668;Laerm;66534;52.370;4.832;2023-02-01T01:10:06;46.95;39.63;66.40;;
69668;Laerm;66534;52.370;4.832;2023-02-01T01:10:37;43.82;38.52;50.98;;
69668;Laerm;66534;52.370;4.832;2023-02-01T01:11:16;43.65;39.17;50.93;;
69668;Laerm;66534;52.370;4.832;2023-02-01T01:11:47;44.88;40.68;59.36;;
69668;Laerm;66534;52.370;4.832;2023-02-01T01:12:18;44.86;41.50;53.60;;
69668;Laerm;66534;52.370;4.832;2023-02-01T01:12:49;48.14;41.66;67.01;;
69668;Laerm;66534;52.370;4.832;2023-02-01T01:13:20;44.97;41.42;49.85;;
69668;Laerm;66534;52.370;4.832;2023-02-01T01:13:52;43.58;40.92;50.47;;
69668;Laerm;66534;52.370;4.832;2023-02-01T01:14:23;42.46;39.44;51.08;;
69668;Laerm;66534;52.370;4.832;2023-02-01T01:14:54;41.67;39.64;45.61;;
69668;Laerm;66534;52.370;4.832;2023-02-01T01:15:24;47.93;39.89;63.94;;
69668;Laerm;66534;52.370;4.832;2023-02-01T01:15:54;42.50;39.99;52.65;;
69668;Laerm;66534;52.370;4.832;2023-02-01T01:16:27;43.73;39.59;53.09;;
69668;Laerm;66534;52.370;4.832;2023-02-01T01:16:58;42.05;39.11;49.05;;
69668;Laerm;66534;52.370;4.832;2023-02-01T01:17:28;41.83;39.06;51.91;;
69668;Laerm;66534;52.370;4.832;2023-02-01T01:18:00;44.45;40.48;53.47;;
69668;Laerm;66534;52.370;4.832;2023-02-01T01:18:32;42.00;38.80;53.15;;
69668;Laerm;66534;52.370;4.832;2023-02-01T01:19:03;42.89;39.59;52.19;;
69668;Laerm;66534;52.370;4.832;2023-02-01T01:19:33;49.88;41.88;55.35;;
69668;Laerm;66534;52.370;4.832;2023-02-01T01:20:04;50.09;42.29;56.40;;
69668;Laerm;66534;52.370;4.832;2023-02-01T01:20:36;50.30;43.34;56.63;;
69668;Laerm;66534;52.370;4.832;2023-02-01T01:21:08;47.10;39.86;55.04;;
69668;Laerm;66534;52.370;4.832;2023-02-01T01:21:39;46.87;42.92;61.07;;
69668;Laerm;66534;52.370;4.832;2023-02-01T01:22:12;49.17;43.59;62.72;;
69668;Laerm;66534;52.370;4.832;2023-02-01T01:22:43;49.64;43.22;58.22;;
69668;Laerm;66534;52.370;4.832;2023-02-01T01:23:14;44.04;40.66;55.21;;
69668;Laerm;66534;52.370;4.832;2023-02-01T01:23:46;46.60;39.87;51.96;;
69668;Laerm;66534;52.370;4.832;2023-02-01T01:24:17;49.06;46.32;54.20;;
69668;Laerm;66534;52.370;4.832;2023-02-01T01:24:47;48.70;45.73;54.52;;
69668;Laerm;66534;52.370;4.832;2023-02-01T01:25:17;45.05;40.89;58.99;;
69668;Laerm;66534;52.370;4.832;2023-02-01T01:25:48;45.06;40.53;56.09;;
69668;Laerm;66534;52.370;4.832;2023-02-01T01:26:21;58.13;40.51;74.25;;
69668;Laerm;66534;52.370;4.832;2023-02-01T01:26:52;50.37;42.44;64.95;;
69668;Laerm;66534;52.370;4.832;2023-02-01T01:27:23;46.58;40.88;64.35;;
69668;Laerm;66534;52.370;4.832;2023-02-01T01:27:55;43.30;39.43;52.93;;
69668;Laerm;66534;52.370;4.832;2023-02-01T01:28:25;43.10;40.25;53.88;;
69668;Laerm;66534;52.370;4.832;2023-02-01T01:28:57;49.79;42.02;66.25;;
69668;Laerm;66534;52.370;4.832;2023-02-01T01:29:28;44.20;40.62;55.15;;
69668;Laerm;66534;52.370;4.832;2023-02-01T01:29:58;44.76;41.38;53.62;;
69668;Laerm;66534;52.370;4.832;2023-02-01T01:30:29;46.67;42.67;53.77;;
69668;Laerm;66534;52.370;4.832;2023-02-01T01:30:59;46.79;42.68;55.25;;
69668;Laerm;66534;52.370;4.832;2023-02-01T01:31:30;47.72;44.34;59.88;;
69668;Laerm;66534;52.370;4.832;2023-02-01T01:32:01;46.25;43.70;56.00;;
69668;Laerm;66534;52.370;4.832;2023-02-01T01:32:31;43.38;39.66;51.62;;
69668;Laerm;66534;52.370;4.832;2023-02-01T01:33:02;45.88;39.79;60.27;;
69668;Laerm;66534;52.370;4.832;2023-02-01T01:33:32;45.87;42.20;58.52;;
69668;Laerm;66534;52.370;4.832;2023-02-01T01:34:03;44.04;41.10;49.71;;
69668;Laerm;66534;52.370;4.832;2023-02-01T01:34:33;48.71;42.88;61.56;;
69668;Laerm;66534;52.370;4.832;2023-02-01T01:35:04;44.49;42.11;55.67;;
69668;Laerm;66534;52.370;4.832;2023-02-01T01:35:34;44.87;42.40;49.27;;
69668;Laerm;66534;52.370;4.832;2023-02-01T01:36:06;48.40;44.17;62.28;;
69668;Laerm;66534;52.370;4.832;2023-02-01T01:36:37;46.72;44.56;52.02;;
69668;Laerm;66534;52.370;4.832;2023-02-01T01:37:07;47.67;44.69;55.95;;
69668;Laerm;66534;52.370;4.832;2023-02-01T01:37:38;47.28;43.53;56.09;;
69668;Laerm;66534;52.370;4.832;2023-02-01T01:38:10;45.43;42.83;53.22;;
69668;Laerm;66534;52.370;4.832;2023-02-01T01:38:42;48.71;44.58;58.08;;
69668;Laerm;66534;52.370;4.832;2023-02-01T01:39:12;45.53;42.07;53.21;;
69668;Laerm;66534;52.370;4.832;2023-02-01T01:39:43;44.75;41.90;49.69;;
69668;Laerm;66534;52.370;4.832;2023-02-01T01:40:13;49.30;41.91;68.37;;
69668;Laerm;66534;52.370;4.832;2023-02-01T01:40:47;49.38;42.34;65.57;;
69668;Laerm;66534;52.370;4.832;2023-02-01T01:41:23;51.72;44.75;71.96;;
69668;Laerm;66534;52.370;4.832;2023-02-01T01:41:53;48.86;44.76;61.35;;
69668;Laerm;66534;52.370;4.832;2023-02-01T01:42:24;47.59;44.42;54.82;;
69668;Laerm;66534;52.370;4.832;2023-02-01T01:42:55;46.48;43.07;55.65;;
69668;Laerm;66534;52.370;4.832;2023-02-01T01:43:58;49.36;42.13;66.75;;
69668;Laerm;66534;52.370;4.832;2023-02-01T01:45:56;49.55;44.08;65.02;;
69668;Laerm;66534;52.370;4.832;2023-02-01T01:46:34;49.28;43.89;64.32;;
69668;Laerm;66534;52.370;4.832;2023-02-01T01:47:06;48.03;45.11;53.39;;
69668;Laerm;66534;52.370;4.832;2023-02-01T01:47:43;48.51;44.75;58.00;;
69668;Laerm;66534;52.370;4.832;2023-02-01T01:48:52;47.04;42.86;58.77;;
69668;Laerm;66534;52.370;4.832;2023-02-01T01:49:25;44.24;41.21;50.39;;
69668;Laerm;66534;52.370;4.832;2023-02-01T01:49:56;46.74;41.95;54.37;;
69668;Laerm;66534;52.370;4.832;2023-02-01T01:50:30;49.16;45.44;64.89;;
69668;Laerm;66534;52.370;4.832;2023-02-01T01:51:08;47.88;41.92;59.51;;
69668;Laerm;66534;52.370;4.832;2023-02-01T01:51:52;46.22;43.02;53.94;;
69668;Laerm;66534;52.370;4.832;2023-02-01T01:52:23;46.19;44.02;51.35;;
69668;Laerm;66534;52.370;4.832;2023-02-01T01:52:55;48.07;45.19;56.93;;
69668;Laerm;66534;52.370;4.832;2023-02-01T01:53:32;48.55;45.33;55.03;;
69668;Laerm;66534;52.370;4.832;2023-02-01T01:54:18;46.04;42.61;53.42;;
69668;Laerm;66534;52.370;4.832;2023-02-01T01:54:54;47.74;42.92;58.64;;
69668;Laerm;66534;52.370;4.832;2023-02-01T01:55:35;46.60;41.63;53.83;;
69668;Laerm;66534;52.370;4.832;2023-02-01T01:56:06;45.76;42.88;52.52;;
69668;Laerm;66534;52.370;4.832;2023-02-01T01:56:37;49.62;46.06;57.71;;
69668;Laerm;66534;52.370;4.832;2023-02-01T01:57:15;49.33;45.24;64.38;;
69668;Laerm;66534;52.370;4.832;2023-02-01T01:57:55;50.24;46.28;55.95;;
69668;Laerm;66534;52.370;4.832;2023-02-01T01:58:29;50.28;46.19;56.34;;
69668;Laerm;66534;52.370;4.832;2023-02-01T01:59:02;48.84;42.53;62.21;;
69668;Laerm;66534;52.370;4.832;2023-02-01T01:59:35;47.86;43.39;63.45;;
69668;Laerm;66534;52.370;4.832;2023-02-01T02:00:14;49.09;42.75;63.06;;
69668;Laerm;66534;52.370;4.832;2023-02-01T02:00:46;48.15;43.71;59.80;;
69668;Laerm;66534;52.370;4.832;2023-02-01T02:01:17;50.83;43.12;65.11;;
69668;Laerm;66534;52.370;4.832;2023-02-01T02:01:48;46.15;43.20;53.14;;
69668;Laerm;66534;52.370;4.832;2023-02-01T02:02:18;47.38;44.32;53.59;;
69668;Laerm;66534;52.370;4.832;2023-02-01T02:02:57;46.52;43.99;50.90;;
69668;Laerm;66534;52.370;4.832;2023-02-01T02:03:33;49.73;45.66;56.20;;
69668;Laerm;66534;52.370;4.832;2023-02-01T02:04:05;47.39;44.68;56.53;;
69668;Laerm;66534;52.370;4.832;2023-02-01T02:04:36;46.22;42.71;53.74;;
69668;Laerm;66534;52.370;4.832;2023-02-01T02:05:08;44.94;41.95;57.30;;
69668;Laerm;66534;52.370;4.832;2023-02-01T02:05:39;47.73;42.69;58.22;;
69668;Laerm;66534;52.370;4.832;2023-02-01T02:06:25;45.29;43.06;51.75;;
69668;Laerm;66534;52.370;4.832;2023-02-01T02:07:33;46.70;43.50;52.27;;
69668;Laerm;66534;52.370;4.832;2023-02-01T02:08:05;49.43;45.99;61.87;;
69668;Laerm;66534;52.370;4.832;2023-02-01T02:08:35;52.95;49.35;63.17;;
69668;Laerm;66534;52.370;4.832;2023-02-01T02:09:06;52.18;48.74;62.85;;
69668;Laerm;66534;52.370;4.832;2023-02-01T02:09:37;49.81;46.08;57.47;;
69668;Laerm;66534;52.370;4.832;2023-02-01T02:10:12;47.23;43.91;53.58;;
69668;Laerm;66534;52.370;4.832;2023-02-01T02:10:42;46.18;42.41;55.65;;
69668;Laerm;66534;52.370;4.832;2023-02-01T02:11:31;47.52;42.75;55.37;;
69668;Laerm;66534;52.370;4.832;2023-02-01T02:12:03;47.21;43.37;53.36;;
69668;Laerm;66534;52.370;4.832;2023-02-01T02:12:33;48.33;45.27;55.84;;
69668;Laerm;66534;52.370;4.832;2023-02-01T02:13:04;47.25;43.50;56.18;;
69668;Laerm;66534;52.370;4.832;2023-02-01T02:13:38;47.84;44.41;53.77;;
69668;Laerm;66534;52.370;4.832;2023-02-01T02:14:11;47.52;43.00;60.23;;
69668;Laerm;66534;52.370;4.832;2023-02-01T02:14:44;47.56;41.38;62.40;;
69668;Laerm;66534;52.370;4.832;2023-02-01T02:15:15;50.12;42.60;57.75;;
69668;Laerm;66534;52.370;4.832;2023-02-01T02:17:58;47.30;42.37;59.31;;
69668;Laerm;66534;52.370;4.832;2023-02-01T02:18:44;46.90;42.73;55.19;;
69668;Laerm;66534;52.370;4.832;2023-02-01T02:20:39;47.42;43.50;56.49;;
69668;Laerm;66534;52.370;4.832;2023-02-01T02:22:26;53.58;45.60;73.63;;
69668;Laerm;66534;52.370;4.832;2023-02-01T02:26:57;51.48;45.36;61.19;;
69668;Laerm;66534;52.370;4.832;2023-02-01T02:32:44;51.02;43.81;75.28;;
69668;Laerm;66534;52.370;4.832;2023-02-01T02:34:32;44.32;40.47;56.50;;
69668;Laerm;66534;52.370;4.832;2023-02-01T02:36:35;47.90;43.52;57.36;;
69668;Laerm;66534;52.370;4.832;2023-02-01T02:40:37;51.94;48.18;68.05;;
69668;Laerm;66534;52.370;4.832;2023-02-01T02:41:18;48.50;43.48;53.72;;
69668;Laerm;66534;52.370;4.832;2023-02-01T02:42:20;50.63;45.01;63.08;;
69668;Laerm;66534;52.370;4.832;2023-02-01T02:43:22;49.33;42.88;59.34;;
69668;Laerm;66534;52.370;4.832;2023-02-01T02:46:24;50.05;44.54;63.47;;
69668;Laerm;66534;52.370;4.832;2023-02-01T02:47:41;49.69;45.39;62.26;;
69668;Laerm;66534;52.370;4.832;2023-02-01T02:48:35;52.21;44.96;66.69;;
69668;Laerm;66534;52.370;4.832;2023-02-01T02:50:23;49.34;43.39;67.26;;
69668;Laerm;66534;52.370;4.832;2023-02-01T02:51:23;51.93;42.88;64.99;;
69668;Laerm;66534;52.370;4.832;2023-02-01T02:52:18;47.88;43.04;62.50;;
69668;Laerm;66534;52.370;4.832;2023-02-01T02:53:18;47.18;42.95;61.62;;
69668;Laerm;66534;52.370;4.832;2023-02-01T02:54:14;47.18;42.81;52.53;;
69668;Laerm;66534;52.370;4.832;2023-02-01T02:55:22;50.45;44.54;67.88;;
69668;Laerm;66534;52.370;4.832;2023-02-01T02:55:53;47.39;43.56;59.21;;
69668;Laerm;66534;52.370;4.832;2023-02-01T02:56:43;46.87;44.18;54.15;;
69668;Laerm;66534;52.370;4.832;2023-02-01T02:57:38;47.31;42.62;65.55;;
69668;Laerm;66534;52.370;4.832;2023-02-01T02:58:29;46.56;42.30;56.85;;
69668;Laerm;66534;52.370;4.832;2023-02-01T02:59:21;48.50;43.14;65.15;;
69668;Laerm;66534;52.370;4.832;2023-02-01T03:00:16;48.13;43.88;59.09;;
69668;Laerm;66534;52.370;4.832;2023-02-01T03:01:06;49.93;44.46;70.58;;
69668;Laerm;66534;52.370;4.832;2023-02-01T03:01:55;46.25;41.48;55.51;;
69668;Laerm;66534;52.370;4.832;2023-02-01T03:02:46;45.83;41.67;59.85;;
69668;Laerm;66534;52.370;4.832;2023-02-01T03:03:38;45.16;41.01;55.07;;
69668;Laerm;66534;52.370;4.832;2023-02-01T03:04:27;45.26;41.30;53.54;;
69668;Laerm;66534;52.370;4.832;2023-02-01T03:04:58;47.88;44.01;52.73;;
69668;Laerm;66534;52.370;4.832;2023-02-01T03:05:35;48.23;43.00;55.02;;
69668;Laerm;66534;52.370;4.832;2023-02-01T03:06:16;46.70;42.45;53.80;;
69668;Laerm;66534;52.370;4.832;2023-02-01T03:06:48;47.89;44.06;56.47;;
69668;Laerm;66534;52.370;4.832;2023-02-01T03:08:22;46.02;42.30;57.18;;
69668;Laerm;66534;52.370;4.832;2023-02-01T03:08:56;46.95;44.30;52.53;;
69668;Laerm;66534;52.370;4.832;2023-02-01T03:09:35;49.41;43.95;62.55;;
69668;Laerm;66534;52.370;4.832;2023-02-01T03:10:16;49.21;45.43;61.22;;
69668;Laerm;66534;52.370;4.832;2023-02-01T03:11:05;47.94;45.31;53.21;;
69668;Laerm;66534;52.370;4.832;2023-02-01T03:11:38;46.84;43.75;55.84;;
69668;Laerm;66534;52.370;4.832;2023-02-01T03:12:28;48.38;44.33;65.96;;
69668;Laerm;66534;52.370;4.832;2023-02-01T03:13:55;47.84;44.90;54.46;;
69668;Laerm;66534;52.370;4.832;2023-02-01T03:14:30;48.09;44.79;55.34;;
69668;Laerm;66534;52.370;4.832;2023-02-01T03:15:07;47.91;44.99;57.86;;
69668;Laerm;66534;52.370;4.832;2023-02-01T03:17:05;48.25;44.52;58.70;;
69668;Laerm;66534;52.370;4.832;2023-02-01T03:17:42;46.70;43.74;54.21;;
69668;Laerm;66534;52.370;4.832;2023-02-01T03:18:46;48.82;44.49;59.38;;
69668;Laerm;66534;52.370;4.832;2023-02-01T03:19:25;47.00;43.66;52.22;;
69668;Laerm;66534;52.370;4.832;2023-02-01T03:20:01;47.23;42.64;59.67;;
69668;Laerm;66534;52.370;4.832;2023-02-01T03:20:33;49.14;45.45;57.40;;
69668;Laerm;66534;52.370;4.832;2023-02-01T03:21:11;49.49;45.59;61.20;;
69668;Laerm;66534;52.370;4.832;2023-02-01T03:21:58;48.52;44.63;56.67;;
69668;Laerm;66534;52.370;4.832;2023-02-01T03:22:31;48.74;44.65;57.51;;
69668;Laerm;66534;52.370;4.832;2023-02-01T03:23:05;45.54;42.85;51.77;;
69668;Laerm;66534;52.370;4.832;2023-02-01T03:23:36;47.86;44.35;57.05;;
69668;Laerm;66534;52.370;4.832;2023-02-01T03:24:27;47.88;43.73;55.53;;
69668;Laerm;66534;52.370;4.832;2023-02-01T03:25:10;48.05;43.20;62.40;;
69668;Laerm;66534;52.370;4.832;2023-02-01T03:25:43;50.96;45.89;61.48;;
69668;Laerm;66534;52.370;4.832;2023-02-01T03:26:15;46.50;43.60;54.19;;
69668;Laerm;66534;52.370;4.832;2023-02-01T03:26:55;48.66;45.07;63.66;;
69668;Laerm;66534;52.370;4.832;2023-02-01T03:27:35;46.86;42.20;57.59;;
69668;Laerm;66534;52.370;4.832;2023-02-01T03:28:08;45.26;42.10;59.45;;
69668;Laerm;66534;52.370;4.832;2023-02-01T03:28:43;42.97;40.47;52.82;;
69668;Laerm;66534;52.370;4.832;2023-02-01T03:29:24;44.36;41.50;58.94;;
69668;Laerm;66534;52.370;4.832;2023-02-01T03:30:30;45.56;41.81;56.50;;
69668;Laerm;66534;52.370;4.832;2023-02-01T03:31:02;46.93;43.50;51.63;;
69668;Laerm;66534;52.370;4.832;2023-02-01T03:31:33;47.32;43.56;60.60;;
69668;Laerm;66534;52.370;4.832;2023-02-01T03:32:04;46.64;42.80;55.73;;
69668;Laerm;66534;52.370;4.832;2023-02-01T03:32:36;44.96;41.86;54.22;;
69668;Laerm;66534;52.370;4.832;2023-02-01T03:33:26;50.13;42.00;62.42;;
69668;Laerm;66534;52.370;4.832;2023-02-01T03:34:00;50.16;43.44;67.18;;
69668;Laerm;66534;52.370;4.832;2023-02-01T03:34:32;46.79;43.23;58.27;;
69668;Laerm;66534;52.370;4.832;2023-02-01T03:35:04;45.34;42.14;51.29;;
69668;Laerm;66534;52.370;4.832;2023-02-01T03:37:12;46.98;42.49;53.98;;
69668;Laerm;66534;52.370;4.832;2023-02-01T03:37:46;45.38;42.38;52.54;;
69668;Laerm;66534;52.370;4.832;2023-02-01T03:38:23;44.18;41.59;49.57;;
69668;Laerm;66534;52.370;4.832;2023-02-01T03:39:03;44.98;42.05;54.33;;
69668;Laerm;66534;52.370;4.832;2023-02-01T03:39:43;49.23;44.59;57.39;;
69668;Laerm;66534;52.370;4.832;2023-02-01T03:40:18;51.19;45.24;69.07;;
69668;Laerm;66534;52.370;4.832;2023-02-01T03:40:56;48.31;44.93;57.47;;
69668;Laerm;66534;52.370;4.832;2023-02-01T03:41:40;46.49;42.17;57.76;;
69668;Laerm;66534;52.370;4.832;2023-02-01T03:42:19;51.31;43.55;63.76;;
69668;Laerm;66534;52.370;4.832;2023-02-01T03:42:54;57.65;47.81;84.67;;
69668;Laerm;66534;52.370;4.832;2023-02-01T03:43:29;50.92;46.89;67.98;;
69668;Laerm;66534;52.370;4.832;2023-02-01T03:46:00;54.67;49.18;75.12;;
69668;Laerm;66534;52.370;4.832;2023-02-01T03:46:39;61.79;49.65;80.08;;